createdAt,value
2023-05-08T00:00:13.870Z,2.10
2023-05-08T00:00:46.423Z,2.70
2023-05-08T00:01:21.382Z,2.33
2023-05-08T00:01:56.311Z,2.23
2023-05-08T00:02:28.734Z,2.80
2023-05-08T00:03:01.351Z,2.20
2023-05-08T00:03:36.662Z,2.40
2023-05-08T00:04:09.209Z,2.03
2023-05-08T00:04:41.714Z,2.17
2023-05-08T00:05:16.697Z,2.43
2023-05-08T00:05:49.015Z,2.40
2023-05-08T00:06:21.398Z,2.33
2023-05-08T00:06:56.372Z,2.13
2023-05-08T00:07:28.689Z,2.20
2023-05-08T00:08:01.764Z,2.27
2023-05-08T00:08:36.814Z,2.07
2023-05-08T00:09:09.119Z,1.97
2023-05-08T00:09:41.414Z,2.30
2023-05-08T00:10:16.423Z,2.27
2023-05-08T00:10:48.781Z,2.00
2023-05-08T00:11:21.455Z,2.47
2023-05-08T00:11:56.366Z,2.20
2023-05-08T00:12:28.750Z,1.93
2023-05-08T00:13:01.156Z,2.43
2023-05-08T00:13:36.165Z,2.60
2023-05-08T00:14:08.548Z,2.53
2023-05-08T00:14:40.880Z,1.93
2023-05-08T00:15:15.850Z,2.20
2023-05-08T00:15:48.184Z,2.10
2023-05-08T00:16:23.245Z,2.50
2023-05-08T00:16:55.607Z,2.50
2023-05-08T00:17:30.609Z,2.37
2023-05-08T00:18:03.013Z,2.40
2023-05-08T00:18:36.131Z,2.20
2023-05-08T00:19:11.550Z,2.20
2023-05-08T00:19:43.860Z,2.30
2023-05-08T00:20:16.177Z,2.43
2023-05-08T00:20:48.603Z,2.53
2023-05-08T00:21:23.685Z,2.40
2023-05-08T00:21:56.148Z,2.27
2023-05-08T00:22:28.569Z,2.20
2023-05-08T00:23:03.510Z,2.33
2023-05-08T00:23:35.956Z,2.40
2023-05-08T00:24:08.567Z,2.73
2023-05-08T00:24:43.487Z,2.40
2023-05-08T00:25:15.915Z,2.60
2023-05-08T00:25:48.250Z,2.40
2023-05-08T00:26:23.420Z,2.70
2023-05-08T00:26:56.107Z,2.40
2023-05-08T00:27:28.469Z,2.63
2023-05-08T00:28:03.918Z,2.27
2023-05-08T00:28:36.375Z,2.43
2023-05-08T00:29:08.782Z,2.20
2023-05-08T00:29:44.223Z,2.47
2023-05-08T00:30:17.153Z,2.30
2023-05-08T00:30:49.571Z,2.40
2023-05-08T00:31:27.123Z,2.17
2023-05-08T00:31:59.535Z,2.00
2023-05-08T00:32:31.893Z,2.40
2023-05-08T00:33:04.737Z,2.90
2023-05-08T00:33:39.805Z,2.77
2023-05-08T00:34:12.122Z,2.33
2023-05-08T00:34:44.462Z,2.50
2023-05-08T00:35:16.797Z,2.40
2023-05-08T00:35:51.763Z,2.70
2023-05-08T00:36:24.090Z,2.90
2023-05-08T00:36:56.944Z,2.50
2023-05-08T00:37:31.894Z,2.30
2023-05-08T00:38:04.302Z,2.53
2023-05-08T00:38:37.391Z,2.73
2023-05-08T00:39:12.803Z,2.73
2023-05-08T00:39:45.153Z,2.40
2023-05-08T00:40:17.478Z,2.63
2023-05-08T00:40:49.791Z,2.77
2023-05-08T00:41:24.729Z,2.50
2023-05-08T00:41:57.086Z,2.47
2023-05-08T00:42:29.511Z,2.83
2023-05-08T00:43:01.948Z,3.40
2023-05-08T00:43:37.884Z,3.50
2023-05-08T00:44:10.783Z,3.10
2023-05-08T00:44:43.142Z,3.27
2023-05-08T00:45:15.479Z,4.17
2023-05-08T00:45:50.709Z,3.90
2023-05-08T00:46:25.746Z,3.77
2023-05-08T00:46:58.186Z,4.00
2023-05-08T00:47:33.207Z,4.20
2023-05-08T00:48:06.211Z,2.80
2023-05-08T00:48:39.146Z,2.70
2023-05-08T00:49:14.758Z,2.90
2023-05-08T00:49:47.099Z,2.80
2023-05-08T00:50:20.217Z,3.23
2023-05-08T00:50:56.213Z,2.90
2023-05-08T00:51:28.819Z,2.90
2023-05-08T00:52:01.334Z,3.30
2023-05-08T00:52:36.774Z,3.00
2023-05-08T00:53:09.099Z,3.27
2023-05-08T00:53:43.429Z,3.07
2023-05-08T00:54:18.612Z,2.90
2023-05-08T00:54:51.009Z,2.77
2023-05-08T00:55:23.428Z,3.10
2023-05-08T00:55:58.437Z,3.00
2023-05-08T00:56:31.179Z,3.40
2023-05-08T00:57:04.340Z,3.37
2023-05-08T00:57:39.422Z,3.20
2023-05-08T00:58:13.133Z,3.40
2023-05-08T00:58:45.867Z,2.80
2023-05-08T00:59:21.305Z,3.27
2023-05-08T00:59:54.287Z,2.70
2023-05-08T01:00:27.192Z,3.10
2023-05-08T01:01:03.878Z,3.03
2023-05-08T01:01:39.554Z,2.50
2023-05-08T01:02:12.530Z,3.10
2023-05-08T01:02:47.810Z,3.30
2023-05-08T01:03:21.482Z,3.37
2023-05-08T01:03:54.358Z,2.93
2023-05-08T01:04:29.865Z,3.10
2023-05-08T01:05:03.386Z,2.97
2023-05-08T01:05:36.701Z,3.33
2023-05-08T01:06:11.930Z,3.20
2023-05-08T01:06:44.260Z,3.10
2023-05-08T01:07:18.330Z,3.17
2023-05-08T01:07:53.681Z,3.20
2023-05-08T01:08:26.085Z,3.00
2023-05-08T01:08:59.054Z,2.90
2023-05-08T01:09:34.717Z,3.17
2023-05-08T01:10:08.332Z,3.10
2023-05-08T01:10:47.577Z,2.60
2023-05-08T01:11:28.071Z,3.23
2023-05-08T01:12:10.937Z,2.57
2023-05-08T01:12:57.388Z,2.80
2023-05-08T01:13:37.859Z,3.10
2023-05-08T01:14:16.296Z,2.90
2023-05-08T01:15:02.636Z,2.63
2023-05-08T01:15:39.601Z,3.17
2023-05-08T01:16:16.416Z,2.50
2023-05-08T01:17:03.410Z,2.90
2023-05-08T01:17:44.038Z,2.80
2023-05-08T01:18:24.571Z,2.73
2023-05-08T01:19:03.221Z,3.03
2023-05-08T01:20:02.459Z,3.10
2023-05-08T01:20:40.671Z,3.20
2023-05-08T01:21:18.101Z,3.23
2023-05-08T01:21:55.419Z,3.10
2023-05-08T01:22:52.853Z,3.00
2023-05-08T01:23:40.082Z,3.47
2023-05-08T01:24:43.967Z,2.63
2023-05-08T01:25:41.894Z,3.33
2023-05-08T01:26:43.057Z,3.33
2023-05-08T01:27:38.727Z,3.53
2023-05-08T01:28:39.232Z,3.03
2023-05-08T01:29:39.773Z,2.80
2023-05-08T01:30:24.772Z,2.90
2023-05-08T01:31:11.598Z,3.20
2023-05-08T01:31:54.981Z,2.63
2023-05-08T01:32:35.463Z,3.10
2023-05-08T01:33:11.710Z,2.80
2023-05-08T01:33:48.114Z,3.10
2023-05-08T01:34:25.816Z,2.67
2023-05-08T01:35:03.981Z,3.20
2023-05-08T01:35:45.757Z,3.23
2023-05-08T01:36:25.190Z,2.70
2023-05-08T01:37:01.288Z,2.90
2023-05-08T01:37:37.559Z,2.73
2023-05-08T01:38:18.800Z,2.63
2023-05-08T01:38:56.286Z,3.17
2023-05-08T01:39:35.269Z,2.97
2023-05-08T01:40:16.294Z,2.90
2023-05-08T01:40:53.066Z,2.90
2023-05-08T01:41:27.661Z,3.00
2023-05-08T01:42:07.914Z,2.80
2023-05-08T01:42:46.030Z,3.10
2023-05-08T01:43:28.485Z,3.67
2023-05-08T01:44:11.482Z,3.43
2023-05-08T01:44:48.151Z,3.43
2023-05-08T01:45:26.595Z,3.90
2023-05-08T01:46:02.558Z,3.27
2023-05-08T01:46:37.595Z,3.73
2023-05-08T01:47:11.678Z,3.70
2023-05-08T01:47:50.608Z,4.63
2023-05-08T01:48:28.641Z,4.90
2023-05-08T01:49:06.973Z,5.17
2023-05-08T01:49:41.368Z,4.57
2023-05-08T01:50:19.776Z,4.13
2023-05-08T01:50:57.432Z,3.63
2023-05-08T01:51:34.139Z,4.07
2023-05-08T01:52:10.781Z,4.93
2023-05-08T01:52:46.068Z,4.90
2023-05-08T01:53:23.838Z,4.77
2023-05-08T01:54:01.836Z,6.20
2023-05-08T01:54:39.440Z,4.90
2023-05-08T01:55:15.061Z,5.43
2023-05-08T01:55:52.149Z,4.90
2023-05-08T01:56:25.234Z,5.27
2023-05-08T01:56:59.130Z,5.00
2023-05-08T01:57:36.363Z,4.73
2023-05-08T01:58:10.292Z,4.93
2023-05-08T01:58:43.021Z,5.33
2023-05-08T01:59:20.204Z,6.77
2023-05-08T01:59:52.850Z,7.07
2023-05-08T02:00:26.181Z,6.20
2023-05-08T02:01:02.378Z,6.60
2023-05-08T02:01:35.437Z,6.60
2023-05-08T02:02:09.327Z,6.37
2023-05-08T02:02:44.854Z,5.93
2023-05-08T02:03:21.496Z,6.47
2023-05-08T02:03:57.282Z,6.20
2023-05-08T02:04:30.371Z,6.07
2023-05-08T02:05:05.075Z,5.20
2023-05-08T02:05:41.263Z,4.53
2023-05-08T02:06:16.982Z,4.30
2023-05-08T02:06:51.892Z,4.10
2023-05-08T02:07:27.119Z,4.30
2023-05-08T02:07:59.519Z,4.17
2023-05-08T02:08:32.300Z,4.07
2023-05-08T02:09:07.577Z,3.70
2023-05-08T02:09:41.938Z,4.30
2023-05-08T02:10:14.692Z,4.53
2023-05-08T02:10:50.787Z,4.13
2023-05-08T02:11:24.888Z,4.50
2023-05-08T02:11:57.739Z,4.30
2023-05-08T02:12:31.165Z,4.20
2023-05-08T02:13:07.698Z,3.93
2023-05-08T02:13:40.657Z,4.10
2023-05-08T02:14:14.398Z,4.20
2023-05-08T02:14:51.666Z,4.00
2023-05-08T02:15:25.480Z,4.97
2023-05-08T02:15:58.845Z,4.23
2023-05-08T02:16:34.232Z,4.63
2023-05-08T02:17:09.656Z,4.20
2023-05-08T02:17:42.746Z,4.20
2023-05-08T02:18:18.962Z,4.63
2023-05-08T02:18:55.723Z,5.17
2023-05-08T02:19:29.790Z,5.73
2023-05-08T02:20:06.393Z,4.70
2023-05-08T02:20:39.513Z,4.97
2023-05-08T02:21:15.569Z,4.30
2023-05-08T02:21:48.995Z,3.93
2023-05-08T02:22:22.546Z,4.63
2023-05-08T02:22:57.650Z,3.67
2023-05-08T02:23:30.531Z,4.20
2023-05-08T02:24:04.121Z,4.57
2023-05-08T02:24:40.122Z,5.20
2023-05-08T02:25:14.826Z,5.70
2023-05-08T02:25:47.799Z,6.50
2023-05-08T02:26:24.410Z,6.33
2023-05-08T02:26:57.491Z,5.57
2023-05-08T02:27:31.638Z,6.00
2023-05-08T02:28:06.793Z,4.90
2023-05-08T02:28:39.157Z,4.30
2023-05-08T02:29:11.742Z,4.53
2023-05-08T02:29:48.258Z,4.30
2023-05-08T02:30:22.545Z,4.27
2023-05-08T02:30:55.022Z,4.07
2023-05-08T02:31:31.189Z,4.10
2023-05-08T02:32:04.571Z,4.17
2023-05-08T02:32:37.257Z,4.00
2023-05-08T02:33:13.842Z,3.80
2023-05-08T02:33:46.839Z,3.53
2023-05-08T02:34:22.100Z,3.63
2023-05-08T02:35:03.127Z,4.10
2023-05-08T02:35:37.526Z,4.00
2023-05-08T02:36:11.882Z,4.00
2023-05-08T02:36:46.925Z,3.90
2023-05-08T02:37:20.518Z,3.70
2023-05-08T02:37:54.608Z,3.73
2023-05-08T02:38:30.045Z,4.00
2023-05-08T02:39:03.801Z,3.70
2023-05-08T02:39:38.808Z,4.37
2023-05-08T02:40:15.333Z,3.60
2023-05-08T02:40:50.221Z,3.90
2023-05-08T02:41:23.748Z,4.30
2023-05-08T02:41:58.715Z,3.73
2023-05-08T02:42:31.343Z,3.50
2023-05-08T02:43:04.744Z,3.50
2023-05-08T02:43:39.731Z,4.00
2023-05-08T02:44:12.901Z,3.20
2023-05-08T02:44:45.257Z,4.03
2023-05-08T02:45:20.565Z,3.83
2023-05-08T02:45:57.889Z,3.50
2023-05-08T02:46:39.641Z,3.90
2023-05-08T02:47:21.485Z,4.10
2023-05-08T02:47:59.684Z,4.50
2023-05-08T02:48:37.725Z,4.37
2023-05-08T02:49:13.934Z,3.90
2023-05-08T02:49:53.545Z,4.63
2023-05-08T02:50:34.078Z,4.70
2023-05-08T02:51:15.750Z,3.87
2023-05-08T02:51:54.191Z,4.03
2023-05-08T02:52:32.404Z,4.40
2023-05-08T02:53:08.818Z,3.83
2023-05-08T02:53:46.211Z,4.03
2023-05-08T02:54:28.548Z,4.13
2023-05-08T02:55:03.758Z,3.77
2023-05-08T02:55:41.356Z,4.43
2023-05-08T02:56:23.251Z,3.77
2023-05-08T02:56:58.908Z,4.00
2023-05-08T02:57:40.905Z,4.50
2023-05-08T02:58:18.012Z,3.77
2023-05-08T02:59:00.503Z,4.70
2023-05-08T02:59:37.948Z,4.33
2023-05-08T03:00:18.609Z,4.47
2023-05-08T03:00:57.440Z,4.10
2023-05-08T03:01:33.960Z,4.00
2023-05-08T03:02:12.859Z,4.07
2023-05-08T03:02:50.267Z,4.50
2023-05-08T03:03:28.047Z,4.50
2023-05-08T03:04:04.911Z,3.70
2023-05-08T03:04:40.555Z,4.57
2023-05-08T03:05:22.306Z,4.43
2023-05-08T03:05:57.702Z,4.40
2023-05-08T03:06:34.452Z,4.50
2023-05-08T03:07:07.242Z,4.40
2023-05-08T03:07:45.265Z,4.30
2023-05-08T03:08:21.593Z,3.70
2023-05-08T03:08:57.895Z,4.00
2023-05-08T03:09:40.047Z,4.43
2023-05-08T03:10:15.720Z,5.20
2023-05-08T03:10:51.552Z,4.50
2023-05-08T03:11:31.650Z,4.97
2023-05-08T03:12:10.686Z,4.30
2023-05-08T03:12:46.061Z,4.37
2023-05-08T03:13:22.360Z,3.97
2023-05-08T03:13:57.918Z,4.50
2023-05-08T03:14:31.060Z,4.50
2023-05-08T03:15:10.088Z,4.33
2023-05-08T03:15:45.311Z,4.70
2023-05-08T03:16:20.801Z,4.77
2023-05-08T03:16:58.418Z,4.20
2023-05-08T03:17:33.522Z,4.07
2023-05-08T03:18:09.866Z,4.17
2023-05-08T03:18:48.248Z,4.00
2023-05-08T03:19:25.030Z,4.40
2023-05-08T03:20:00.870Z,4.17
2023-05-08T03:20:44.996Z,4.17
2023-05-08T03:21:19.274Z,4.80
2023-05-08T03:21:52.759Z,4.03
2023-05-08T03:22:28.794Z,4.23
2023-05-08T03:23:01.636Z,4.37
2023-05-08T03:23:34.691Z,4.20
2023-05-08T03:24:11.387Z,4.33
2023-05-08T03:24:44.807Z,3.87
2023-05-08T03:25:18.685Z,4.57
2023-05-08T03:25:54.657Z,4.10
2023-05-08T03:26:27.051Z,3.77
2023-05-08T03:26:59.773Z,4.10
2023-05-08T03:27:35.940Z,4.33
2023-05-08T03:28:08.628Z,4.70
2023-05-08T03:28:41.086Z,4.40
2023-05-08T03:29:16.871Z,4.30
2023-05-08T03:29:50.868Z,4.00
2023-05-08T03:30:24.630Z,3.80
2023-05-08T03:31:08.632Z,3.87
2023-05-08T03:31:43.283Z,4.60
2023-05-08T03:32:16.800Z,3.90
2023-05-08T03:32:52.982Z,3.90
2023-05-08T03:33:26.445Z,4.40
2023-05-08T03:33:59.220Z,4.20
2023-05-08T03:34:36.256Z,4.43
2023-05-08T03:35:09.863Z,4.10
2023-05-08T03:35:45.870Z,4.40
2023-05-08T03:36:21.615Z,4.30
2023-05-08T03:36:54.304Z,4.20
2023-05-08T03:37:27.740Z,3.90
2023-05-08T03:38:03.021Z,4.67
2023-05-08T03:38:36.098Z,4.27
2023-05-08T03:39:08.857Z,4.20
2023-05-08T03:39:43.957Z,4.57
2023-05-08T03:40:16.452Z,4.40
2023-05-08T03:40:49.552Z,4.20
2023-05-08T03:41:25.049Z,4.43
2023-05-08T03:41:57.509Z,3.80
2023-05-08T03:42:31.734Z,4.67
2023-05-08T03:43:09.399Z,4.23
2023-05-08T03:43:42.145Z,4.47
2023-05-08T03:44:16.166Z,3.80
2023-05-08T03:44:49.197Z,4.17
2023-05-08T03:45:24.329Z,4.03
2023-05-08T03:45:57.132Z,4.00
2023-05-08T03:46:31.580Z,4.20
2023-05-08T03:47:06.900Z,3.97
2023-05-08T03:47:39.532Z,4.20
2023-05-08T03:48:12.125Z,4.10
2023-05-08T03:48:47.529Z,4.40
2023-05-08T03:49:24.322Z,3.97
2023-05-08T03:50:00.974Z,4.60
2023-05-08T03:50:39.655Z,5.30
2023-05-08T03:51:17.882Z,5.20
2023-05-08T03:51:50.634Z,5.80
2023-05-08T03:52:23.042Z,5.20
2023-05-08T03:52:58.264Z,5.60
2023-05-08T03:53:31.115Z,5.47
2023-05-08T03:54:06.260Z,5.30
2023-05-08T03:54:39.702Z,5.33
2023-05-08T03:55:12.093Z,5.90
2023-05-08T03:55:47.362Z,5.30
2023-05-08T03:56:21.159Z,5.33
2023-05-08T03:56:54.483Z,5.37
2023-05-08T03:57:31.094Z,5.60
2023-05-08T03:58:08.290Z,5.90
2023-05-08T03:58:49.242Z,5.97
2023-05-08T03:59:33.351Z,5.80
2023-05-08T04:00:10.008Z,6.00
2023-05-08T04:01:01.190Z,6.50
2023-05-08T04:01:43.913Z,5.40
2023-05-08T04:02:23.382Z,5.30
2023-05-08T04:03:09.474Z,5.60
2023-05-08T04:03:59.775Z,5.23
2023-05-08T04:04:40.153Z,6.50
2023-05-08T04:05:19.165Z,6.30
2023-05-08T04:06:01.089Z,6.30
2023-05-08T04:06:49.522Z,6.50
2023-05-08T04:07:32.229Z,5.87
2023-05-08T04:08:08.339Z,6.10
2023-05-08T04:08:45.125Z,5.80
2023-05-08T04:09:24.895Z,5.87
2023-05-08T04:10:00.838Z,6.43
2023-05-08T04:10:36.230Z,6.20
2023-05-08T04:11:17.648Z,6.70
2023-05-08T04:11:59.658Z,6.00
2023-05-08T04:12:37.758Z,6.30
2023-05-08T04:13:16.441Z,6.90
2023-05-08T04:13:55.169Z,6.10
2023-05-08T04:14:32.695Z,6.73
2023-05-08T04:15:10.776Z,6.57
2023-05-08T04:15:49.584Z,6.43
2023-05-08T04:16:25.276Z,6.70
2023-05-08T04:17:05.973Z,6.40
2023-05-08T04:17:42.476Z,6.07
2023-05-08T04:18:18.322Z,6.40
2023-05-08T04:18:54.024Z,6.20
2023-05-08T04:19:29.386Z,6.00
2023-05-08T04:20:05.073Z,6.87
2023-05-08T04:20:43.223Z,6.70
2023-05-08T04:21:23.006Z,6.57
2023-05-08T04:22:00.150Z,6.03
2023-05-08T04:22:36.446Z,6.17
2023-05-08T04:23:10.062Z,5.90
2023-05-08T04:23:43.260Z,6.30
2023-05-08T04:24:18.572Z,6.30
2023-05-08T04:24:52.877Z,7.33
2023-05-08T04:25:26.455Z,6.70
2023-05-08T04:26:05.159Z,6.77
2023-05-08T04:26:38.255Z,6.73
2023-05-08T04:27:11.252Z,6.83
2023-05-08T04:27:47.093Z,6.70
2023-05-08T04:28:19.723Z,6.77
2023-05-08T04:28:52.449Z,6.70
2023-05-08T04:29:25.160Z,6.70
2023-05-08T04:30:00.233Z,6.77
2023-05-08T04:30:33.172Z,6.87
2023-05-08T04:31:05.737Z,6.17
2023-05-08T04:31:41.768Z,6.40
2023-05-08T04:32:14.398Z,6.60
2023-05-08T04:32:47.458Z,6.47
2023-05-08T04:33:24.113Z,6.60
2023-05-08T04:33:57.229Z,6.33
2023-05-08T04:34:29.797Z,6.47
2023-05-08T04:35:05.383Z,6.90
2023-05-08T04:35:37.787Z,6.80
2023-05-08T04:36:12.693Z,6.97
2023-05-08T04:36:48.808Z,6.80
2023-05-08T04:37:28.619Z,6.23
2023-05-08T04:38:03.607Z,6.70
2023-05-08T04:38:39.676Z,6.90
2023-05-08T04:39:12.571Z,6.73
2023-05-08T04:39:45.079Z,6.63
2023-05-08T04:40:20.645Z,6.13
2023-05-08T04:40:53.117Z,6.37
2023-05-08T04:41:26.494Z,6.30
2023-05-08T04:42:03.896Z,6.70
2023-05-08T04:42:39.882Z,6.47
2023-05-08T04:43:12.273Z,6.07
2023-05-08T04:43:47.217Z,5.67
2023-05-08T04:44:19.789Z,6.53
2023-05-08T04:44:52.240Z,5.90
2023-05-08T04:45:27.860Z,7.00
2023-05-08T04:46:00.246Z,6.10
2023-05-08T04:46:32.730Z,6.27
2023-05-08T04:47:07.950Z,7.13
2023-05-08T04:47:40.305Z,6.47
2023-05-08T04:48:12.723Z,6.77
2023-05-08T04:48:47.671Z,6.30
2023-05-08T04:49:20.013Z,6.50
2023-05-08T04:49:52.433Z,6.73
2023-05-08T04:50:27.498Z,6.23
2023-05-08T04:50:59.915Z,6.77
2023-05-08T04:51:32.508Z,6.20
2023-05-08T04:52:08.244Z,6.07
2023-05-08T04:52:43.348Z,6.30
2023-05-08T04:53:16.226Z,6.30
2023-05-08T04:53:51.196Z,6.90
2023-05-08T04:54:23.850Z,6.70
2023-05-08T04:54:56.160Z,6.17
2023-05-08T04:55:31.236Z,6.70
2023-05-08T04:56:03.942Z,6.60
2023-05-08T04:56:36.379Z,6.80
2023-05-08T04:57:11.328Z,6.13
2023-05-08T04:57:44.749Z,7.10
2023-05-08T04:58:17.560Z,6.10
2023-05-08T04:58:52.514Z,6.50
2023-05-08T04:59:25.329Z,6.70
2023-05-08T04:59:58.144Z,7.30
2023-05-08T05:00:33.563Z,6.90
2023-05-08T05:01:06.344Z,7.47
2023-05-08T05:01:39.170Z,6.40
2023-05-08T05:02:14.157Z,7.37
2023-05-08T05:02:46.664Z,7.70
2023-05-08T05:03:19.092Z,8.23
2023-05-08T05:03:54.085Z,8.90
2023-05-08T05:04:26.441Z,8.07
2023-05-08T05:05:01.561Z,8.90
2023-05-08T05:05:38.980Z,9.17
2023-05-08T05:06:12.473Z,8.03
2023-05-08T05:06:44.874Z,8.60
2023-05-08T05:07:20.533Z,7.80
2023-05-08T05:07:55.481Z,7.73
2023-05-08T05:08:28.225Z,7.10
2023-05-08T05:09:05.007Z,7.03
2023-05-08T05:09:38.903Z,6.93
2023-05-08T05:10:11.553Z,7.13
2023-05-08T05:10:46.481Z,6.47
2023-05-08T05:11:19.041Z,7.43
2023-05-08T05:11:51.377Z,6.70
2023-05-08T05:12:26.780Z,7.50
2023-05-08T05:12:59.256Z,7.47
2023-05-08T05:13:32.067Z,6.80
2023-05-08T05:14:07.440Z,6.60
2023-05-08T05:14:40.917Z,7.30
2023-05-08T05:15:13.853Z,7.30
2023-05-08T05:15:51.566Z,7.90
2023-05-08T05:16:23.973Z,7.57
2023-05-08T05:16:59.201Z,6.93
2023-05-08T05:17:31.776Z,7.03
2023-05-08T05:18:04.962Z,6.83
2023-05-08T05:18:40.020Z,7.77
2023-05-08T05:19:12.453Z,6.70
2023-05-08T05:19:47.449Z,6.00
2023-05-08T05:20:19.965Z,6.10
2023-05-08T05:20:52.646Z,6.70
2023-05-08T05:21:28.363Z,7.50
2023-05-08T05:22:01.144Z,6.90
2023-05-08T05:22:33.598Z,7.40
2023-05-08T05:23:11.571Z,7.23
2023-05-08T05:23:44.890Z,7.27
2023-05-08T05:24:17.210Z,6.77
2023-05-08T05:24:52.167Z,6.30
2023-05-08T05:25:24.796Z,6.60
2023-05-08T05:25:59.985Z,6.20
2023-05-08T05:26:33.222Z,6.23
2023-05-08T05:27:10.000Z,6.10
2023-05-08T05:27:42.322Z,6.77
2023-05-08T05:28:15.862Z,6.00
2023-05-08T05:28:51.534Z,6.07
2023-05-08T05:29:24.315Z,6.37
2023-05-08T05:29:57.885Z,5.90
2023-05-08T05:30:33.534Z,6.10
2023-05-08T05:31:06.061Z,6.07
2023-05-08T05:31:38.647Z,6.57
2023-05-08T05:32:11.870Z,6.53
2023-05-08T05:32:47.104Z,6.20
2023-05-08T05:33:19.546Z,5.63
2023-05-08T05:33:52.234Z,6.30
2023-05-08T05:34:27.910Z,6.03
2023-05-08T05:35:00.281Z,6.30
2023-05-08T05:35:33.324Z,5.83
2023-05-08T05:36:09.862Z,6.13
2023-05-08T05:36:42.185Z,6.33
2023-05-08T05:37:14.748Z,6.40
2023-05-08T05:37:49.807Z,6.17
2023-05-08T05:38:25.754Z,6.30
2023-05-08T05:38:58.622Z,6.10
2023-05-08T05:39:34.222Z,6.60
2023-05-08T05:40:08.281Z,6.50
2023-05-08T05:40:41.983Z,6.30
2023-05-08T05:41:16.930Z,6.67
2023-05-08T05:41:49.506Z,6.40
2023-05-08T05:42:24.626Z,6.40
2023-05-08T05:42:57.047Z,6.47
2023-05-08T05:43:29.383Z,6.27
2023-05-08T05:44:04.485Z,6.00
2023-05-08T05:44:37.492Z,6.27
2023-05-08T05:45:10.762Z,5.93
2023-05-08T05:45:47.783Z,6.57
2023-05-08T05:46:20.580Z,6.30
2023-05-08T05:46:53.210Z,6.20
2023-05-08T05:47:28.412Z,6.37
2023-05-08T05:48:00.852Z,6.70
2023-05-08T05:48:33.464Z,6.83
2023-05-08T05:49:08.487Z,6.57
2023-05-08T05:49:43.259Z,6.57
2023-05-08T05:50:18.432Z,6.57
2023-05-08T05:50:54.413Z,6.73
2023-05-08T05:51:27.808Z,6.67
2023-05-08T05:52:00.719Z,6.37
2023-05-08T05:52:35.665Z,7.13
2023-05-08T05:53:08.113Z,6.33
2023-05-08T05:53:43.916Z,6.53
2023-05-08T05:54:18.918Z,6.60
2023-05-08T05:54:51.270Z,6.70
2023-05-08T05:55:26.901Z,6.57
2023-05-08T05:55:59.514Z,6.20
2023-05-08T05:56:31.845Z,6.90
2023-05-08T05:57:07.958Z,6.87
2023-05-08T05:57:40.348Z,6.27
2023-05-08T05:58:12.686Z,6.47
2023-05-08T05:58:47.638Z,6.20
2023-05-08T05:59:20.124Z,6.13
2023-05-08T05:59:55.109Z,6.10
2023-05-08T06:00:28.354Z,5.70
2023-05-08T06:01:02.324Z,6.93
2023-05-08T06:01:38.878Z,6.57
2023-05-08T06:02:14.697Z,6.07
2023-05-08T06:02:47.292Z,6.23
2023-05-08T06:03:24.455Z,6.50
2023-05-08T06:03:57.054Z,7.20
2023-05-08T06:04:29.651Z,7.40
2023-05-08T06:05:05.779Z,6.80
2023-05-08T06:05:38.350Z,6.80
2023-05-08T06:06:10.703Z,6.50
2023-05-08T06:06:45.617Z,6.80
2023-05-08T06:07:18.001Z,6.90
2023-05-08T06:07:50.426Z,7.20
2023-05-08T06:08:25.341Z,7.03
2023-05-08T06:09:00.278Z,6.80
2023-05-08T06:09:32.672Z,6.33
2023-05-08T06:10:08.715Z,13.00
2023-05-08T06:10:41.666Z,8.30
2023-05-08T06:11:14.570Z,36.37
2023-05-08T06:11:49.572Z,27.30
2023-05-08T06:12:22.250Z,13.00
2023-05-08T06:12:57.412Z,14.83
2023-05-08T06:13:31.775Z,10.40
2023-05-08T06:14:04.319Z,7.37
2023-05-08T06:14:39.550Z,7.77
2023-05-08T06:15:13.055Z,7.23
2023-05-08T06:15:46.735Z,6.80
2023-05-08T06:16:23.398Z,6.73
2023-05-08T06:16:56.093Z,6.63
2023-05-08T06:17:28.453Z,6.77
2023-05-08T06:18:03.470Z,6.30
2023-05-08T06:18:35.880Z,6.37
2023-05-08T06:19:08.511Z,7.07
2023-05-08T06:19:43.520Z,6.77
2023-05-08T06:20:15.921Z,6.37
2023-05-08T06:20:48.305Z,6.27
2023-05-08T06:21:23.269Z,6.60
2023-05-08T06:21:55.809Z,7.30
2023-05-08T06:22:29.545Z,7.27
2023-05-08T06:23:04.495Z,6.60
2023-05-08T06:23:36.829Z,7.00
2023-05-08T06:24:11.864Z,7.13
2023-05-08T06:24:47.253Z,7.93
2023-05-08T06:25:20.092Z,7.07
2023-05-08T06:25:52.408Z,6.90
2023-05-08T06:26:27.425Z,7.60
2023-05-08T06:26:59.746Z,7.90
2023-05-08T06:27:32.133Z,8.27
2023-05-08T06:28:08.360Z,7.87
2023-05-08T06:28:40.665Z,7.83
2023-05-08T06:29:13.051Z,6.63
2023-05-08T06:29:48.050Z,6.70
2023-05-08T06:30:20.774Z,6.47
2023-05-08T06:30:53.259Z,6.80
2023-05-08T06:31:28.354Z,7.00
2023-05-08T06:32:01.036Z,6.33
2023-05-08T06:32:33.458Z,6.80
2023-05-08T06:33:08.419Z,7.00
2023-05-08T06:33:40.736Z,6.93
2023-05-08T06:34:13.286Z,6.67
2023-05-08T06:34:48.274Z,8.10
2023-05-08T06:35:20.722Z,7.00
2023-05-08T06:35:55.983Z,6.50
2023-05-08T06:36:28.328Z,7.10
2023-05-08T06:37:00.742Z,7.23
2023-05-08T06:37:35.722Z,7.03
2023-05-08T06:38:08.081Z,6.50
2023-05-08T06:38:40.436Z,6.80
2023-05-08T06:39:18.618Z,7.00
2023-05-08T06:40:00.307Z,7.00
2023-05-08T06:40:46.689Z,7.27
2023-05-08T06:41:18.996Z,6.60
2023-05-08T06:41:51.289Z,6.83
2023-05-08T06:42:36.633Z,7.00
2023-05-08T06:43:08.950Z,7.33
2023-05-08T06:43:43.880Z,7.07
2023-05-08T06:44:16.435Z,6.47
2023-05-08T06:44:53.815Z,8.43
2023-05-08T06:45:26.373Z,8.33
2023-05-08T06:45:58.705Z,8.03
2023-05-08T06:46:33.822Z,7.47
2023-05-08T06:47:06.260Z,6.47
2023-05-08T06:47:38.935Z,7.27
2023-05-08T06:48:13.923Z,7.33
2023-05-08T06:48:46.223Z,7.80
2023-05-08T06:49:18.518Z,7.40
2023-05-08T06:49:54.198Z,7.70
2023-05-08T06:50:26.549Z,7.83
2023-05-08T06:50:59.316Z,7.50
2023-05-08T06:51:35.782Z,7.50
2023-05-08T06:52:08.167Z,7.60
2023-05-08T06:52:40.762Z,7.67
2023-05-08T06:53:15.971Z,7.00
2023-05-08T06:53:48.270Z,7.20
2023-05-08T06:54:25.806Z,7.70
2023-05-08T06:54:58.117Z,7.90
2023-05-08T06:55:33.095Z,7.60
2023-05-08T06:56:06.191Z,7.23
2023-05-08T06:56:41.141Z,7.00
2023-05-08T06:57:14.762Z,7.63
2023-05-08T06:57:47.069Z,7.60
2023-05-08T06:58:21.993Z,7.37
2023-05-08T06:59:07.127Z,8.03
2023-05-08T06:59:43.125Z,8.13
2023-05-08T07:00:16.496Z,7.13
2023-05-08T07:00:48.804Z,7.77
2023-05-08T07:01:24.250Z,7.20
2023-05-08T07:01:56.636Z,7.00
2023-05-08T07:02:31.673Z,7.30
2023-05-08T07:03:04.296Z,7.70
2023-05-08T07:03:37.203Z,8.53
2023-05-08T07:04:09.552Z,11.40
2023-05-08T07:04:44.636Z,10.13
2023-05-08T07:05:18.272Z,8.57
2023-05-08T07:05:53.387Z,8.60
2023-05-08T07:06:25.702Z,8.43
2023-05-08T07:06:58.052Z,7.80
2023-05-08T07:07:33.613Z,8.47
2023-05-08T07:08:06.006Z,7.30
2023-05-08T07:08:40.978Z,8.33
2023-05-08T07:09:13.315Z,8.10
2023-05-08T07:09:48.250Z,8.00
2023-05-08T07:10:23.331Z,7.70
2023-05-08T07:10:55.692Z,7.63
2023-05-08T07:11:28.012Z,7.07
2023-05-08T07:12:02.926Z,7.60
2023-05-08T07:12:35.250Z,8.30
2023-05-08T07:13:07.696Z,7.33
2023-05-08T07:13:43.440Z,7.10
2023-05-08T07:14:15.772Z,7.50
2023-05-08T07:14:50.873Z,8.17
2023-05-08T07:15:26.385Z,8.00
2023-05-08T07:16:01.925Z,7.40
2023-05-08T07:16:34.389Z,8.30
2023-05-08T07:17:07.119Z,7.60
2023-05-08T07:17:42.149Z,7.90
2023-05-08T07:18:14.688Z,7.50
2023-05-08T07:18:49.612Z,7.87
2023-05-08T07:19:22.698Z,7.93
2023-05-08T07:19:55.111Z,7.77
2023-05-08T07:20:30.189Z,8.67
2023-05-08T07:21:03.561Z,8.37
2023-05-08T07:21:38.908Z,7.60
2023-05-08T07:22:11.331Z,8.30
2023-05-08T07:22:43.768Z,8.10
2023-05-08T07:23:18.705Z,8.80
2023-05-08T07:23:51.954Z,7.33
2023-05-08T07:24:24.948Z,8.50
2023-05-08T07:25:02.633Z,7.07
2023-05-08T07:25:34.951Z,8.50
2023-05-08T07:26:08.536Z,7.93
2023-05-08T07:26:44.493Z,7.90
2023-05-08T07:27:16.973Z,8.20
2023-05-08T07:27:49.393Z,8.57
2023-05-08T07:28:24.447Z,7.60
2023-05-08T07:28:56.836Z,7.93
2023-05-08T07:29:31.807Z,7.33
2023-05-08T07:30:04.916Z,7.60
2023-05-08T07:30:39.830Z,8.60
2023-05-08T07:31:12.294Z,7.97
2023-05-08T07:31:46.104Z,8.13
2023-05-08T07:32:21.404Z,7.47
2023-05-08T07:32:53.839Z,8.00
2023-05-08T07:33:28.900Z,8.40
2023-05-08T07:34:01.232Z,8.20
2023-05-08T07:34:33.949Z,8.33
2023-05-08T07:35:12.498Z,8.40
2023-05-08T07:35:45.439Z,8.80
2023-05-08T07:36:17.766Z,8.83
2023-05-08T07:36:52.711Z,8.30
2023-05-08T07:37:25.041Z,8.13
2023-05-08T07:37:59.998Z,8.10
2023-05-08T07:38:32.404Z,7.73
2023-05-08T07:39:04.759Z,8.77
2023-05-08T07:39:39.678Z,8.97
2023-05-08T07:40:14.671Z,8.53
2023-05-08T07:40:51.728Z,9.87
2023-05-08T07:41:24.082Z,10.30
2023-05-08T07:41:59.007Z,8.60
2023-05-08T07:42:31.497Z,9.67
2023-05-08T07:43:04.070Z,9.53
2023-05-08T07:43:39.382Z,9.60
2023-05-08T07:44:11.913Z,9.77
2023-05-08T07:44:53.610Z,9.20
2023-05-08T07:45:29.921Z,9.20
2023-05-08T07:46:02.272Z,9.50
2023-05-08T07:46:34.760Z,10.23
2023-05-08T07:47:09.751Z,9.40
2023-05-08T07:47:49.417Z,9.30
2023-05-08T07:48:24.353Z,8.90